sensor_id;sensor_type;location;lat;lon;timestamp;P1;durP1;ratioP1;P2;durP2;ratioP2
75616;SDS011;64200;55.426;37.758;2023-07-22T00:03:49;5.13;;;1.37;;
75616;SDS011;64200;55.426;37.758;2023-07-22T00:08:49;4.30;;;1.73;;
75616;SDS011;64200;55.426;37.758;2023-07-22T00:13:50;2.50;;;1.45;;
75616;SDS011;64200;55.426;37.758;2023-07-22T00:18:52;5.68;;;2.13;;
75616;SDS011;64200;55.426;37.758;2023-07-22T00:23:53;4.45;;;1.48;;
75616;SDS011;64200;55.426;37.758;2023-07-22T00:28:54;5.50;;;1.73;;
75616;SDS011;64200;55.426;37.758;2023-07-22T00:33:55;3.38;;;1.52;;
75616;SDS011;64200;55.426;37.758;2023-07-22T00:38:55;3.90;;;1.80;;
75616;SDS011;64200;55.426;37.758;2023-07-22T00:43:56;2.72;;;1.55;;
75616;SDS011;64200;55.426;37.758;2023-07-22T00:48:56;3.50;;;1.30;;
75616;SDS011;64200;55.426;37.758;2023-07-22T00:53:57;2.85;;;1.65;;
75616;SDS011;64200;55.426;37.758;2023-07-22T00:58:58;4.68;;;1.80;;
75616;SDS011;64200;55.426;37.758;2023-07-22T01:04:00;1.77;;;1.27;;
75616;SDS011;64200;55.426;37.758;2023-07-22T01:09:01;4.43;;;1.95;;
75616;SDS011;64200;55.426;37.758;2023-07-22T01:14:02;4.90;;;1.70;;
75616;SDS011;64200;55.426;37.758;2023-07-22T01:19:03;6.15;;;1.60;;
75616;SDS011;64200;55.426;37.758;2023-07-22T01:24:05;3.97;;;1.52;;
75616;SDS011;64200;55.426;37.758;2023-07-22T01:29:07;1.95;;;1.20;;
75616;SDS011;64200;55.426;37.758;2023-07-22T01:34:07;3.72;;;1.70;;
75616;SDS011;64200;55.426;37.758;2023-07-22T01:39:08;2.33;;;1.55;;
75616;SDS011;64200;55.426;37.758;2023-07-22T01:44:09;3.45;;;1.50;;
75616;SDS011;64200;55.426;37.758;2023-07-22T01:49:10;3.47;;;1.75;;
75616;SDS011;64200;55.426;37.758;2023-07-22T01:54:12;3.78;;;1.95;;
75616;SDS011;64200;55.426;37.758;2023-07-22T01:59:13;4.10;;;1.55;;
75616;SDS011;64200;55.426;37.758;2023-07-22T02:04:13;3.73;;;1.33;;
75616;SDS011;64200;55.426;37.758;2023-07-22T02:09:14;3.17;;;1.40;;
75616;SDS011;64200;55.426;37.758;2023-07-22T02:14:14;2.95;;;1.50;;
75616;SDS011;64200;55.426;37.758;2023-07-22T02:19:15;2.35;;;1.58;;
75616;SDS011;64200;55.426;37.758;2023-07-22T02:24:16;2.85;;;1.48;;
75616;SDS011;64200;55.426;37.758;2023-07-22T02:29:16;2.08;;;1.17;;
75616;SDS011;64200;55.426;37.758;2023-07-22T02:34:18;4.45;;;1.48;;
75616;SDS011;64200;55.426;37.758;2023-07-22T02:39:19;4.13;;;1.53;;
75616;SDS011;64200;55.426;37.758;2023-07-22T02:44:19;2.87;;;1.10;;
75616;SDS011;64200;55.426;37.758;2023-07-22T02:49:20;3.20;;;1.30;;
75616;SDS011;64200;55.426;37.758;2023-07-22T02:54:20;1.65;;;1.10;;
75616;SDS011;64200;55.426;37.758;2023-07-22T02:59:21;2.97;;;1.30;;
75616;SDS011;64200;55.426;37.758;2023-07-22T03:04:21;3.87;;;1.30;;
75616;SDS011;64200;55.426;37.758;2023-07-22T03:09:23;2.25;;;1.42;;
75616;SDS011;64200;55.426;37.758;2023-07-22T03:14:23;2.20;;;1.07;;
75616;SDS011;64200;55.426;37.758;2023-07-22T03:19:25;3.03;;;1.10;;
75616;SDS011;64200;55.426;37.758;2023-07-22T03:24:26;2.13;;;1.20;;
75616;SDS011;64200;55.426;37.758;2023-07-22T03:29:26;2.95;;;1.23;;
75616;SDS011;64200;55.426;37.758;2023-07-22T03:34:28;2.78;;;1.05;;
75616;SDS011;64200;55.426;37.758;2023-07-22T03:39:29;2.30;;;1.20;;
75616;SDS011;64200;55.426;37.758;2023-07-22T03:44:30;5.10;;;1.17;;
75616;SDS011;64200;55.426;37.758;2023-07-22T03:49:30;2.90;;;1.20;;
75616;SDS011;64200;55.426;37.758;2023-07-22T03:54:31;2.17;;;1.25;;
75616;SDS011;64200;55.426;37.758;2023-07-22T03:59:31;2.60;;;0.82;;
75616;SDS011;64200;55.426;37.758;2023-07-22T04:04:32;1.75;;;1.08;;
75616;SDS011;64200;55.426;37.758;2023-07-22T04:09:32;2.95;;;1.00;;
75616;SDS011;64200;55.426;37.758;2023-07-22T04:14:33;4.13;;;1.00;;
75616;SDS011;64200;55.426;37.758;2023-07-22T04:19:34;3.17;;;1.00;;
75616;SDS011;64200;55.426;37.758;2023-07-22T04:24:34;4.05;;;1.33;;
75616;SDS011;64200;55.426;37.758;2023-07-22T04:29:35;1.88;;;0.90;;
75616;SDS011;64200;55.426;37.758;2023-07-22T04:34:35;1.80;;;1.00;;
75616;SDS011;64200;55.426;37.758;2023-07-22T04:39:36;2.03;;;1.17;;
75616;SDS011;64200;55.426;37.758;2023-07-22T04:44:37;1.73;;;0.85;;
75616;SDS011;64200;55.426;37.758;2023-07-22T04:49:38;1.87;;;1.20;;
75616;SDS011;64200;55.426;37.758;2023-07-22T04:54:39;4.15;;;0.80;;
75616;SDS011;64200;55.426;37.758;2023-07-22T04:59:41;2.72;;;1.05;;
75616;SDS011;64200;55.426;37.758;2023-07-22T05:04:41;1.97;;;0.73;;
75616;SDS011;64200;55.426;37.758;2023-07-22T05:09:42;1.40;;;0.70;;
75616;SDS011;64200;55.426;37.758;2023-07-22T05:14:42;2.70;;;0.90;;
75616;SDS011;64200;55.426;37.758;2023-07-22T05:19:44;4.78;;;1.00;;
75616;SDS011;64200;55.426;37.758;2023-07-22T05:24:45;1.23;;;0.70;;
75616;SDS011;64200;55.426;37.758;2023-07-22T05:29:46;0.90;;;0.60;;
75616;SDS011;64200;55.426;37.758;2023-07-22T05:34:46;2.70;;;0.88;;
75616;SDS011;64200;55.426;37.758;2023-07-22T05:39:47;2.13;;;0.90;;
75616;SDS011;64200;55.426;37.758;2023-07-22T05:44:48;3.50;;;0.70;;
75616;SDS011;64200;55.426;37.758;2023-07-22T05:49:49;1.48;;;0.68;;
75616;SDS011;64200;55.426;37.758;2023-07-22T05:54:49;1.35;;;1.05;;
75616;SDS011;64200;55.426;37.758;2023-07-22T05:59:50;0.80;;;0.40;;
75616;SDS011;64200;55.426;37.758;2023-07-22T06:04:50;1.48;;;0.82;;
75616;SDS011;64200;55.426;37.758;2023-07-22T06:09:51;1.73;;;0.83;;
75616;SDS011;64200;55.426;37.758;2023-07-22T06:14:51;1.97;;;0.60;;
75616;SDS011;64200;55.426;37.758;2023-07-22T06:19:52;1.63;;;1.10;;
75616;SDS011;64200;55.426;37.758;2023-07-22T06:24:52;2.53;;;1.10;;
75616;SDS011;64200;55.426;37.758;2023-07-22T06:29:53;1.67;;;0.90;;
75616;SDS011;64200;55.426;37.758;2023-07-22T06:34:53;3.05;;;0.90;;
75616;SDS011;64200;55.426;37.758;2023-07-22T06:39:54;1.87;;;0.90;;
75616;SDS011;64200;55.426;37.758;2023-07-22T06:44:55;1.40;;;0.88;;
75616;SDS011;64200;55.426;37.758;2023-07-22T06:49:55;2.20;;;0.93;;
75616;SDS011;64200;55.426;37.758;2023-07-22T06:54:56;2.17;;;0.93;;
75616;SDS011;64200;55.426;37.758;2023-07-22T06:59:56;1.48;;;0.73;;
75616;SDS011;64200;55.426;37.758;2023-07-22T07:04:57;2.58;;;1.00;;
75616;SDS011;64200;55.426;37.758;2023-07-22T07:09:58;2.88;;;0.90;;
75616;SDS011;64200;55.426;37.758;2023-07-22T07:14:58;1.05;;;0.82;;
75616;SDS011;64200;55.426;37.758;2023-07-22T07:19:59;0.93;;;0.70;;
75616;SDS011;64200;55.426;37.758;2023-07-22T07:25:00;2.03;;;0.82;;
75616;SDS011;64200;55.426;37.758;2023-07-22T07:30:00;1.08;;;0.73;;
75616;SDS011;64200;55.426;37.758;2023-07-22T07:35:01;1.20;;;0.70;;
75616;SDS011;64200;55.426;37.758;2023-07-22T07:40:01;1.30;;;0.90;;
75616;SDS011;64200;55.426;37.758;2023-07-22T07:45:03;0.98;;;0.55;;
75616;SDS011;64200;55.426;37.758;2023-07-22T07:50:04;1.25;;;0.60;;
75616;SDS011;64200;55.426;37.758;2023-07-22T07:55:07;1.30;;;0.70;;
75616;SDS011;64200;55.426;37.758;2023-07-22T08:00:07;3.03;;;0.93;;
75616;SDS011;64200;55.426;37.758;2023-07-22T08:05:09;2.72;;;1.00;;
75616;SDS011;64200;55.426;37.758;2023-07-22T08:10:09;2.15;;;1.00;;
75616;SDS011;64200;55.426;37.758;2023-07-22T08:15:10;1.25;;;0.82;;
75616;SDS011;64200;55.426;37.758;2023-07-22T08:20:11;3.63;;;1.10;;
75616;SDS011;64200;55.426;37.758;2023-07-22T08:25:11;1.50;;;0.73;;
75616;SDS011;64200;55.426;37.758;2023-07-22T08:30:12;0.93;;;0.70;;
75616;SDS011;64200;55.426;37.758;2023-07-22T08:35:12;2.03;;;1.15;;
75616;SDS011;64200;55.426;37.758;2023-07-22T08:40:13;0.70;;;0.70;;
75616;SDS011;64200;55.426;37.758;2023-07-22T08:45:13;2.83;;;0.95;;
75616;SDS011;64200;55.426;37.758;2023-07-22T08:50:16;1.60;;;0.80;;
75616;SDS011;64200;55.426;37.758;2023-07-22T08:55:21;2.60;;;0.82;;
75616;SDS011;64200;55.426;37.758;2023-07-22T09:00:22;1.60;;;0.80;;
75616;SDS011;64200;55.426;37.758;2023-07-22T09:05:22;2.13;;;0.77;;
75616;SDS011;64200;55.426;37.758;2023-07-22T09:10:24;3.00;;;0.93;;
75616;SDS011;64200;55.426;37.758;2023-07-22T09:15:27;2.15;;;0.55;;
75616;SDS011;64200;55.426;37.758;2023-07-22T09:20:28;0.90;;;0.55;;
75616;SDS011;64200;55.426;37.758;2023-07-22T09:25:29;0.90;;;0.68;;
75616;SDS011;64200;55.426;37.758;2023-07-22T09:30:32;2.03;;;0.93;;
75616;SDS011;64200;55.426;37.758;2023-07-22T09:35:45;3.05;;;1.33;;
75616;SDS011;64200;55.426;37.758;2023-07-22T09:40:49;3.58;;;1.50;;
75616;SDS011;64200;55.426;37.758;2023-07-22T09:45:50;1.67;;;0.52;;
75616;SDS011;64200;55.426;37.758;2023-07-22T09:50:57;2.17;;;0.80;;
75616;SDS011;64200;55.426;37.758;2023-07-22T09:56:02;1.08;;;0.70;;
75616;SDS011;64200;55.426;37.758;2023-07-22T10:01:04;1.00;;;0.70;;
75616;SDS011;64200;55.426;37.758;2023-07-22T10:06:06;1.65;;;0.88;;
75616;SDS011;64200;55.426;37.758;2023-07-22T10:11:08;1.42;;;0.50;;
75616;SDS011;64200;55.426;37.758;2023-07-22T10:16:10;1.45;;;0.63;;
75616;SDS011;64200;55.426;37.758;2023-07-22T10:21:12;1.20;;;0.52;;
75616;SDS011;64200;55.426;37.758;2023-07-22T10:26:16;1.20;;;0.60;;
75616;SDS011;64200;55.426;37.758;2023-07-22T10:31:18;1.30;;;0.75;;
75616;SDS011;64200;55.426;37.758;2023-07-22T10:36:18;4.97;;;0.80;;
75616;SDS011;64200;55.426;37.758;2023-07-22T10:41:19;1.67;;;0.75;;
75616;SDS011;64200;55.426;37.758;2023-07-22T10:46:31;3.53;;;0.50;;
75616;SDS011;64200;55.426;37.758;2023-07-22T10:51:36;0.70;;;0.57;;
75616;SDS011;64200;55.426;37.758;2023-07-22T10:56:37;1.95;;;0.77;;
75616;SDS011;64200;55.426;37.758;2023-07-22T11:01:43;2.28;;;1.20;;
75616;SDS011;64200;55.426;37.758;2023-07-22T11:11:44;2.43;;;0.90;;
75616;SDS011;64200;55.426;37.758;2023-07-22T11:16:46;4.43;;;1.30;;
75616;SDS011;64200;55.426;37.758;2023-07-22T11:21:48;1.63;;;0.93;;
75616;SDS011;64200;55.426;37.758;2023-07-22T11:26:49;1.77;;;0.70;;
75616;SDS011;64200;55.426;37.758;2023-07-22T11:31:51;2.28;;;0.90;;
75616;SDS011;64200;55.426;37.758;2023-07-22T11:36:52;2.58;;;1.13;;
75616;SDS011;64200;55.426;37.758;2023-07-22T11:41:54;1.17;;;0.88;;
75616;SDS011;64200;55.426;37.758;2023-07-22T11:46:58;2.38;;;1.30;;
75616;SDS011;64200;55.426;37.758;2023-07-22T11:52:04;2.75;;;1.50;;
75616;SDS011;64200;55.426;37.758;2023-07-22T12:02:17;2.45;;;1.15;;
75616;SDS011;64200;55.426;37.758;2023-07-22T12:07:26;3.67;;;1.13;;
75616;SDS011;64200;55.426;37.758;2023-07-22T12:12:36;2.70;;;0.90;;
75616;SDS011;64200;55.426;37.758;2023-07-22T12:22:45;2.05;;;1.00;;
75616;SDS011;64200;55.426;37.758;2023-07-22T12:27:46;2.28;;;1.20;;
75616;SDS011;64200;55.426;37.758;2023-07-22T12:32:47;2.00;;;1.00;;
75616;SDS011;64200;55.426;37.758;2023-07-22T12:37:48;1.80;;;0.77;;
75616;SDS011;64200;55.426;37.758;2023-07-22T12:42:48;4.30;;;1.50;;
75616;SDS011;64200;55.426;37.758;2023-07-22T12:47:48;2.17;;;0.80;;
75616;SDS011;64200;55.426;37.758;2023-07-22T12:52:49;2.25;;;1.15;;
75616;SDS011;64200;55.426;37.758;2023-07-22T12:57:50;2.30;;;0.75;;
75616;SDS011;64200;55.426;37.758;2023-07-22T13:02:51;1.30;;;0.90;;
75616;SDS011;64200;55.426;37.758;2023-07-22T13:07:51;1.90;;;1.00;;
75616;SDS011;64200;55.426;37.758;2023-07-22T13:12:53;5.15;;;3.67;;
75616;SDS011;64200;55.426;37.758;2023-07-22T13:17:53;2.80;;;1.47;;
75616;SDS011;64200;55.426;37.758;2023-07-22T13:22:54;3.17;;;1.33;;
75616;SDS011;64200;55.426;37.758;2023-07-22T13:27:55;4.85;;;1.48;;
75616;SDS011;64200;55.426;37.758;2023-07-22T13:32:57;3.30;;;1.40;;
75616;SDS011;64200;55.426;37.758;2023-07-22T13:37:57;1.63;;;0.98;;
75616;SDS011;64200;55.426;37.758;2023-07-22T13:42:58;1.27;;;0.87;;
75616;SDS011;64200;55.426;37.758;2023-07-22T13:47:58;2.37;;;0.50;;
75616;SDS011;64200;55.426;37.758;2023-07-22T13:52:59;2.63;;;0.73;;
75616;SDS011;64200;55.426;37.758;2023-07-22T13:57:59;5.05;;;1.20;;
75616;SDS011;64200;55.426;37.758;2023-07-22T14:03:00;2.75;;;0.80;;
75616;SDS011;64200;55.426;37.758;2023-07-22T14:08:00;0.68;;;0.55;;
75616;SDS011;64200;55.426;37.758;2023-07-22T14:13:01;4.32;;;1.55;;
75616;SDS011;64200;55.426;37.758;2023-07-22T14:18:02;1.23;;;0.60;;
75616;SDS011;64200;55.426;37.758;2023-07-22T14:23:03;2.67;;;1.02;;
75616;SDS011;64200;55.426;37.758;2023-07-22T14:28:04;3.58;;;0.75;;
75616;SDS011;64200;55.426;37.758;2023-07-22T14:33:05;1.75;;;0.80;;
75616;SDS011;64200;55.426;37.758;2023-07-22T14:38:05;1.23;;;0.90;;
75616;SDS011;64200;55.426;37.758;2023-07-22T14:43:06;2.80;;;1.23;;
75616;SDS011;64200;55.426;37.758;2023-07-22T14:48:07;2.22;;;1.02;;
75616;SDS011;64200;55.426;37.758;2023-07-22T14:53:07;1.58;;;0.73;;
75616;SDS011;64200;55.426;37.758;2023-07-22T14:58:08;2.00;;;0.80;;
75616;SDS011;64200;55.426;37.758;2023-07-22T15:03:08;4.85;;;1.23;;
75616;SDS011;64200;55.426;37.758;2023-07-22T15:08:09;1.40;;;0.93;;
75616;SDS011;64200;55.426;37.758;2023-07-22T15:13:09;1.55;;;1.10;;
75616;SDS011;64200;55.426;37.758;2023-07-22T15:18:10;1.17;;;0.65;;
75616;SDS011;64200;55.426;37.758;2023-07-22T15:23:10;2.53;;;1.77;;
75616;SDS011;64200;55.426;37.758;2023-07-22T15:28:11;4.10;;;1.10;;
75616;SDS011;64200;55.426;37.758;2023-07-22T15:33:11;2.67;;;0.98;;
75616;SDS011;64200;55.426;37.758;2023-07-22T15:38:12;3.60;;;1.73;;
75616;SDS011;64200;55.426;37.758;2023-07-22T15:43:13;1.92;;;1.23;;
75616;SDS011;64200;55.426;37.758;2023-07-22T15:48:14;1.73;;;1.13;;
75616;SDS011;64200;55.426;37.758;2023-07-22T15:53:15;5.20;;;1.73;;
75616;SDS011;64200;55.426;37.758;2023-07-22T15:58:16;1.50;;;0.95;;
75616;SDS011;64200;55.426;37.758;2023-07-22T16:03:17;2.50;;;1.60;;
75616;SDS011;64200;55.426;37.758;2023-07-22T16:08:17;2.13;;;1.10;;
75616;SDS011;64200;55.426;37.758;2023-07-22T16:13:18;3.45;;;1.20;;
75616;SDS011;64200;55.426;37.758;2023-07-22T16:18:18;3.28;;;1.40;;
75616;SDS011;64200;55.426;37.758;2023-07-22T16:23:19;1.75;;;1.13;;
75616;SDS011;64200;55.426;37.758;2023-07-22T16:28:19;3.70;;;1.80;;
75616;SDS011;64200;55.426;37.758;2023-07-22T16:33:20;11.35;;;4.45;;
75616;SDS011;64200;55.426;37.758;2023-07-22T16:38:21;4.15;;;2.72;;
75616;SDS011;64200;55.426;37.758;2023-07-22T16:43:21;2.25;;;1.50;;
75616;SDS011;64200;55.426;37.758;2023-07-22T16:48:22;3.00;;;1.42;;
75616;SDS011;64200;55.426;37.758;2023-07-22T16:53:22;3.10;;;1.70;;
75616;SDS011;64200;55.426;37.758;2023-07-22T16:58:23;6.00;;;2.78;;
75616;SDS011;64200;55.426;37.758;2023-07-22T17:03:23;7.43;;;2.13;;
75616;SDS011;64200;55.426;37.758;2023-07-22T17:08:24;4.25;;;2.78;;
75616;SDS011;64200;55.426;37.758;2023-07-22T17:13:24;6.17;;;3.10;;
75616;SDS011;64200;55.426;37.758;2023-07-22T17:18:25;4.93;;;2.55;;
75616;SDS011;64200;55.426;37.758;2023-07-22T17:23:25;5.85;;;3.03;;
75616;SDS011;64200;55.426;37.758;2023-07-22T17:28:26;4.00;;;2.33;;
75616;SDS011;64200;55.426;37.758;2023-07-22T17:33:26;5.30;;;2.60;;
75616;SDS011;64200;55.426;37.758;2023-07-22T17:38:27;2.42;;;1.48;;
75616;SDS011;64200;55.426;37.758;2023-07-22T17:43:27;3.23;;;1.87;;
75616;SDS011;64200;55.426;37.758;2023-07-22T17:48:28;4.60;;;2.30;;
75616;SDS011;64200;55.426;37.758;2023-07-22T17:53:29;2.25;;;1.48;;
75616;SDS011;64200;55.426;37.758;2023-07-22T17:58:29;3.60;;;1.60;;
75616;SDS011;64200;55.426;37.758;2023-07-22T18:03:30;10.87;;;4.60;;
75616;SDS011;64200;55.426;37.758;2023-07-22T18:08:30;5.82;;;2.10;;
75616;SDS011;64200;55.426;37.758;2023-07-22T18:13:31;4.40;;;2.03;;
75616;SDS011;64200;55.426;37.758;2023-07-22T18:18:31;8.93;;;3.60;;
75616;SDS011;64200;55.426;37.758;2023-07-22T18:23:32;3.37;;;1.83;;
75616;SDS011;64200;55.426;37.758;2023-07-22T18:28:32;5.03;;;2.13;;
75616;SDS011;64200;55.426;37.758;2023-07-22T18:33:33;7.27;;;3.20;;
75616;SDS011;64200;55.426;37.758;2023-07-22T18:38:33;9.20;;;5.47;;
75616;SDS011;64200;55.426;37.758;2023-07-22T18:43:34;5.40;;;3.60;;
75616;SDS011;64200;55.426;37.758;2023-07-22T18:48:34;5.80;;;3.42;;
75616;SDS011;64200;55.426;37.758;2023-07-22T18:53:35;9.60;;;5.50;;
75616;SDS011;64200;55.426;37.758;2023-07-22T18:58:36;5.35;;;3.75;;
75616;SDS011;64200;55.426;37.758;2023-07-22T19:03:36;3.47;;;2.20;;
75616;SDS011;64200;55.426;37.758;2023-07-22T19:08:37;4.20;;;2.60;;
75616;SDS011;64200;55.426;37.758;2023-07-22T19:13:38;2.03;;;1.80;;
75616;SDS011;64200;55.426;37.758;2023-07-22T19:18:38;6.43;;;3.22;;
75616;SDS011;64200;55.426;37.758;2023-07-22T19:23:39;3.83;;;2.03;;
75616;SDS011;64200;55.426;37.758;2023-07-22T19:28:40;2.93;;;1.60;;
75616;SDS011;64200;55.426;37.758;2023-07-22T19:33:40;4.72;;;2.10;;
75616;SDS011;64200;55.426;37.758;2023-07-22T19:38:41;3.58;;;2.35;;
75616;SDS011;64200;55.426;37.758;2023-07-22T19:43:43;5.50;;;2.50;;
75616;SDS011;64200;55.426;37.758;2023-07-22T19:48:44;10.80;;;3.28;;
75616;SDS011;64200;55.426;37.758;2023-07-22T19:53:45;4.93;;;2.95;;
75616;SDS011;64200;55.426;37.758;2023-07-22T19:58:46;4.10;;;2.70;;
75616;SDS011;64200;55.426;37.758;2023-07-22T20:03:46;4.63;;;2.90;;
75616;SDS011;64200;55.426;37.758;2023-07-22T20:08:49;4.15;;;2.63;;
75616;SDS011;64200;55.426;37.758;2023-07-22T20:13:51;6.18;;;3.75;;
75616;SDS011;64200;55.426;37.758;2023-07-22T20:18:52;9.55;;;3.83;;
75616;SDS011;64200;55.426;37.758;2023-07-22T20:23:53;8.25;;;3.65;;
75616;SDS011;64200;55.426;37.758;2023-07-22T20:28:53;7.13;;;3.38;;
75616;SDS011;64200;55.426;37.758;2023-07-22T20:33:54;6.15;;;3.60;;
75616;SDS011;64200;55.426;37.758;2023-07-22T20:38:57;11.40;;;3.93;;
75616;SDS011;64200;55.426;37.758;2023-07-22T20:43:58;4.95;;;3.28;;
75616;SDS011;64200;55.426;37.758;2023-07-22T20:48:58;5.13;;;2.90;;
75616;SDS011;64200;55.426;37.758;2023-07-22T20:53:59;5.85;;;3.58;;
75616;SDS011;64200;55.426;37.758;2023-07-22T20:59:00;3.72;;;2.22;;
75616;SDS011;64200;55.426;37.758;2023-07-22T21:04:01;4.00;;;3.27;;
75616;SDS011;64200;55.426;37.758;2023-07-22T21:09:01;5.27;;;3.23;;
75616;SDS011;64200;55.426;37.758;2023-07-22T21:14:02;5.85;;;3.78;;
75616;SDS011;64200;55.426;37.758;2023-07-22T21:19:03;6.80;;;3.65;;
75616;SDS011;64200;55.426;37.758;2023-07-22T21:24:04;5.73;;;3.37;;
75616;SDS011;64200;55.426;37.758;2023-07-22T21:29:05;4.90;;;3.33;;
75616;SDS011;64200;55.426;37.758;2023-07-22T21:34:05;7.07;;;3.60;;
75616;SDS011;64200;55.426;37.758;2023-07-22T21:39:06;5.87;;;3.43;;
75616;SDS011;64200;55.426;37.758;2023-07-22T21:44:06;7.20;;;3.73;;
75616;SDS011;64200;55.426;37.758;2023-07-22T21:49:07;4.88;;;3.40;;
75616;SDS011;64200;55.426;37.758;2023-07-22T21:54:08;5.55;;;3.40;;
75616;SDS011;64200;55.426;37.758;2023-07-22T21:59:08;5.32;;;3.38;;
75616;SDS011;64200;55.426;37.758;2023-07-22T22:04:11;6.50;;;3.65;;
75616;SDS011;64200;55.426;37.758;2023-07-22T22:09:12;6.38;;;3.20;;
75616;SDS011;64200;55.426;37.758;2023-07-22T22:14:13;11.07;;;4.20;;
75616;SDS011;64200;55.426;37.758;2023-07-22T22:19:15;5.40;;;3.17;;
75616;SDS011;64200;55.426;37.758;2023-07-22T22:24:16;5.90;;;3.77;;
75616;SDS011;64200;55.426;37.758;2023-07-22T22:29:17;6.70;;;3.20;;
75616;SDS011;64200;55.426;37.758;2023-07-22T22:34:17;6.85;;;3.60;;
75616;SDS011;64200;55.426;37.758;2023-07-22T22:39:18;4.93;;;3.00;;
75616;SDS011;64200;55.426;37.758;2023-07-22T22:44:18;5.25;;;3.38;;
75616;SDS011;64200;55.426;37.758;2023-07-22T22:49:19;6.45;;;3.33;;
75616;SDS011;64200;55.426;37.758;2023-07-22T22:54:19;5.37;;;2.97;;
75616;SDS011;64200;55.426;37.758;2023-07-22T22:59:20;6.65;;;3.13;;
75616;SDS011;64200;55.426;37.758;2023-07-22T23:04:20;4.80;;;2.83;;
75616;SDS011;64200;55.426;37.758;2023-07-22T23:09:21;4.13;;;2.63;;
75616;SDS011;64200;55.426;37.758;2023-07-22T23:14:21;4.37;;;3.20;;
75616;SDS011;64200;55.426;37.758;2023-07-22T23:19:22;4.83;;;3.03;;
75616;SDS011;64200;55.426;37.758;2023-07-22T23:24:22;4.57;;;2.63;;
75616;SDS011;64200;55.426;37.758;2023-07-22T23:29:23;7.00;;;3.00;;
75616;SDS011;64200;55.426;37.758;2023-07-22T23:34:23;3.60;;;2.72;;
75616;SDS011;64200;55.426;37.758;2023-07-22T23:39:24;5.30;;;3.70;;
75616;SDS011;64200;55.426;37.758;2023-07-22T23:44:24;4.97;;;3.63;;
75616;SDS011;64200;55.426;37.758;2023-07-22T23:49:25;5.68;;;2.88;;
75616;SDS011;64200;55.426;37.758;2023-07-22T23:54:25;4.22;;;2.42;;
75616;SDS011;64200;55.426;37.758;2023-07-22T23:59:26;4.97;;;2.72;;
